Time;durP1;ratioP1;P1;durP2;ratioP2;P2;SDS_P1;SDS_P2;PMS_P1;PMS_P2;Temp;Humidity;BMP_temperature;BMP_pressure;BME280_temperature;BME280_humidity;BME280_pressure;Samples;Min_cycle;Max_cycle;Signal;HPM_P1;HPM_P2
2024/01/19 00:02:03;;;;;;;1999.90;999.90;;;-0.50;99.90;;;;;;5068460;28;20826;-68
2024/01/19 00:04:31;;;;;;;1999.90;999.90;;;-0.60;99.90;;;;;;5068760;28;20916;-65
2024/01/19 00:06:57;;;;;;;1999.90;999.90;;;-0.60;99.90;;;;;;5060369;28;20438;-64
2024/01/19 00:09:24;;;;;;;1999.90;999.90;;;-0.70;99.90;;;;;;5070370;28;20413;-61
2024/01/19 00:11:51;;;;;;;1999.90;999.90;;;-0.70;99.90;;;;;;5065252;28;20412;-67
2024/01/19 00:14:18;;;;;;;1999.90;999.90;;;-0.80;99.90;;;;;;5066572;28;20437;-64
2024/01/19 00:16:44;;;;;;;1999.90;999.90;;;-0.70;99.90;;;;;;5062664;28;20418;-65
2024/01/19 00:19:11;;;;;;;1999.90;999.90;;;-0.70;99.90;;;;;;5072923;28;21092;-65
2024/01/19 00:21:44;;;;;;;1999.90;999.90;;;-0.70;99.90;;;;;;5069296;28;20423;-65
2024/01/19 00:24:11;;;;;;;1999.90;999.90;;;-0.40;99.90;;;;;;5072154;28;20415;-65
2024/01/19 00:26:38;;;;;;;1999.90;999.90;;;-0.80;99.90;;;;;;5062572;28;20506;-68
2024/01/19 00:29:04;;;;;;;1999.90;999.90;;;-0.60;99.90;;;;;;5066403;28;20407;-64
2024/01/19 00:31:32;;;;;;;1999.90;999.90;;;-0.60;99.90;;;;;;5077992;28;20425;-63
2024/01/19 00:33:58;;;;;;;1999.90;999.90;;;-0.60;99.90;;;;;;5075110;28;20422;-68
2024/01/19 00:36:25;;;;;;;1999.90;999.90;;;-0.60;99.90;;;;;;5071554;28;20433;-65
2024/01/19 00:38:53;;;;;;;1999.90;999.90;;;-0.60;99.90;;;;;;5069082;28;20430;-64
2024/01/19 00:41:20;;;;;;;1999.90;999.90;;;-0.60;99.90;;;;;;5071804;28;20423;-65
2024/01/19 00:43:47;;;;;;;1999.90;999.90;;;-0.60;99.90;;;;;;5076850;28;20446;-68
2024/01/19 00:46:14;;;;;;;1999.90;999.90;;;-0.50;99.90;;;;;;5078050;28;20415;-65
2024/01/19 00:48:40;;;;;;;1999.90;999.90;;;-0.50;99.90;;;;;;5072556;28;20505;-65
2024/01/19 00:51:07;;;;;;;1999.90;999.90;;;-0.40;99.90;;;;;;5064593;28;20448;-68
2024/01/19 00:53:34;;;;;;;1999.90;999.90;;;-0.40;99.90;;;;;;5073737;28;20438;-63
2024/01/19 00:56:03;;;;;;;1999.90;999.90;;;0.00;99.90;;;;;;5071388;28;20918;-66
2024/01/19 00:58:30;;;;;;;1999.90;999.90;;;-0.30;99.90;;;;;;5070701;28;20500;-68
2024/01/19 01:00:57;;;;;;;1999.90;999.90;;;-0.20;99.90;;;;;;5075524;28;20394;-68
2024/01/19 01:03:24;;;;;;;1999.90;999.90;;;-0.30;99.90;;;;;;5095653;28;20450;-68
2024/01/19 01:05:56;;;;;;;1999.90;999.90;;;-0.30;99.90;;;;;;5091482;28;20439;-69
2024/01/19 01:08:22;;;;;;;1999.90;999.90;;;-0.10;99.90;;;;;;5076090;28;20429;-65
2024/01/19 01:10:49;;;;;;;1999.90;999.90;;;0.40;99.90;;;;;;5070605;28;20443;-67
2024/01/19 01:13:18;;;;;;;1999.90;999.90;;;0.00;99.90;;;;;;5070988;28;20522;-64
2024/01/19 01:15:45;;;;;;;1999.90;999.90;;;0.00;99.90;;;;;;5072085;28;20450;-64
2024/01/19 01:18:12;;;;;;;1999.90;999.90;;;0.40;99.90;;;;;;5080149;28;20909;-64
2024/01/19 01:20:39;;;;;;;1999.90;999.90;;;0.00;99.90;;;;;;5070009;28;20415;-65
2024/01/19 01:23:06;;;;;;;1999.90;999.90;;;0.10;99.90;;;;;;5067706;28;20429;-64
2024/01/19 01:25:34;;;;;;;1999.90;999.90;;;0.40;99.90;;;;;;5078309;28;20410;-68
2024/01/19 01:28:00;;;;;;;1999.90;999.90;;;0.10;99.90;;;;;;5078467;28;20411;-66
2024/01/19 01:30:28;;;;;;;1999.90;999.90;;;-0.30;99.90;;;;;;5097848;28;20403;-69
2024/01/19 01:32:55;;;;;;;1999.90;999.90;;;0.10;99.90;;;;;;5088763;28;20423;-68
2024/01/19 01:35:22;;;;;;;1999.90;999.90;;;0.10;99.90;;;;;;5093634;28;20472;-64
2024/01/19 01:37:49;;;;;;;1999.90;999.90;;;0.10;99.90;;;;;;5083051;28;20476;-66
2024/01/19 01:40:16;;;;;;;1999.90;999.90;;;0.10;99.90;;;;;;5074764;28;20435;-68
2024/01/19 01:42:42;;;;;;;1999.90;999.90;;;0.40;99.90;;;;;;5072453;28;20414;-63
2024/01/19 01:45:09;;;;;;;1999.90;999.90;;;0.10;99.90;;;;;;5073561;28;20412;-65
2024/01/19 01:47:37;;;;;;;1999.90;999.90;;;0.10;99.90;;;;;;5075301;28;20439;-67
2024/01/19 01:50:05;;;;;;;1999.90;999.90;;;0.10;99.90;;;;;;5074806;28;20434;-68
2024/01/19 01:52:32;;;;;;;1999.90;999.90;;;0.20;99.90;;;;;;5084785;28;20483;-69
2024/01/19 01:54:59;;;;;;;1999.90;999.90;;;0.20;99.90;;;;;;5086245;28;20891;-66
2024/01/19 01:57:26;;;;;;;1999.90;999.90;;;0.10;99.90;;;;;;5087522;28;20415;-65
2024/01/19 01:59:55;;;;;;;1999.90;999.90;;;0.10;99.90;;;;;;5071839;28;20489;-65
2024/01/19 02:02:21;;;;;;;1999.90;999.90;;;0.20;99.90;;;;;;5071889;28;20469;-64
2024/01/19 02:04:49;;;;;;;1999.90;999.90;;;0.00;99.90;;;;;;5076547;28;20806;-65
2024/01/19 02:07:16;;;;;;;1999.90;999.90;;;0.00;99.90;;;;;;5082199;28;20475;-66
2024/01/19 02:09:43;;;;;;;1999.90;999.90;;;-0.10;99.90;;;;;;5074199;28;20407;-65
2024/01/19 02:12:10;;;;;;;1999.90;999.90;;;-0.10;99.90;;;;;;5074149;28;20427;-68
2024/01/19 02:14:36;;;;;;;1999.90;999.90;;;0.10;99.90;;;;;;5083780;28;20455;-65
2024/01/19 02:17:03;;;;;;;1999.90;999.90;;;0.20;99.90;;;;;;5065764;28;20429;-66
2024/01/19 02:19:30;;;;;;;1999.90;999.90;;;-0.10;99.90;;;;;;5074952;28;20438;-66
2024/01/19 02:21:58;;;;;;;1999.90;999.90;;;-0.20;99.90;;;;;;5070637;28;20441;-68
2024/01/19 02:24:27;;;;;;;1999.90;999.90;;;-0.30;99.90;;;;;;5073406;28;20411;-66
2024/01/19 02:26:55;;;;;;;1999.90;999.90;;;-0.30;99.90;;;;;;5070708;28;20790;-65
2024/01/19 02:29:22;;;;;;;1999.90;999.90;;;-0.30;99.90;;;;;;5075279;28;20492;-66
2024/01/19 02:31:48;;;;;;;1999.90;999.90;;;-0.40;99.90;;;;;;5075137;28;20439;-68
2024/01/19 02:34:15;;;;;;;1999.90;999.90;;;-0.40;99.90;;;;;;5070518;28;20407;-66
2024/01/19 02:36:41;;;;;;;1999.90;999.90;;;-0.30;99.90;;;;;;5071774;28;20411;-65
2024/01/19 02:39:08;;;;;;;1999.90;999.90;;;-0.20;99.90;;;;;;5071351;28;20434;-66
2024/01/19 02:41:37;;;;;;;1999.90;999.90;;;-0.20;99.90;;;;;;5074741;28;20410;-62
2024/01/19 02:44:04;;;;;;;1999.90;999.90;;;-0.20;99.90;;;;;;5075855;28;20438;-65
2024/01/19 02:46:31;;;;;;;1999.90;999.90;;;0.00;99.90;;;;;;5074889;28;20412;-65
2024/01/19 02:48:57;;;;;;;1999.90;999.90;;;-0.10;99.90;;;;;;5078836;28;20404;-68
2024/01/19 02:51:24;;;;;;;1999.90;999.90;;;0.10;99.90;;;;;;5071642;28;20415;-66
2024/01/19 02:53:51;;;;;;;1999.90;999.90;;;0.00;99.90;;;;;;5070477;28;20420;-66
2024/01/19 02:56:17;;;;;;;1999.90;999.90;;;0.00;99.90;;;;;;5070154;28;20437;-66
2024/01/19 02:58:45;;;;;;;1999.90;999.90;;;0.00;99.90;;;;;;5082650;28;20402;-67
2024/01/19 03:01:12;;;;;;;1999.90;999.90;;;0.00;99.90;;;;;;5078597;28;20415;-69
2024/01/19 03:03:38;;;;;;;1999.90;999.90;;;0.00;99.90;;;;;;5080205;28;20425;-61
2024/01/19 03:06:06;;;;;;;1999.90;999.90;;;0.00;99.90;;;;;;5079140;28;20429;-65
2024/01/19 03:08:32;;;;;;;1999.90;999.90;;;0.00;99.90;;;;;;5102291;28;20425;-68
2024/01/19 03:10:59;;;;;;;1999.90;999.90;;;0.00;99.90;;;;;;5101961;28;20408;-67
2024/01/19 03:13:25;;;;;;;1999.90;999.90;;;0.00;99.90;;;;;;5097286;28;20418;-65
2024/01/19 03:15:57;;;;;;;1999.90;999.90;;;0.00;99.90;;;;;;5090583;28;20419;-66
2024/01/19 03:18:24;;;;;;;1999.90;999.90;;;0.00;99.90;;;;;;5075504;28;20433;-66
2024/01/19 03:20:50;;;;;;;1999.90;999.90;;;0.00;99.90;;;;;;5073204;28;20435;-66
2024/01/19 03:23:16;;;;;;;1999.90;999.90;;;0.10;99.90;;;;;;5070155;28;20496;-65
2024/01/19 03:25:43;;;;;;;1999.90;999.90;;;0.20;99.90;;;;;;5074908;28;20420;-66
2024/01/19 03:28:09;;;;;;;1999.90;999.90;;;0.20;99.90;;;;;;5079171;28;20409;-68
2024/01/19 03:30:37;;;;;;;1999.90;999.90;;;0.30;99.90;;;;;;5071304;28;20408;-65
2024/01/19 03:33:05;;;;;;;1999.90;999.90;;;0.30;99.90;;;;;;5069134;28;20458;-67
2024/01/19 03:35:32;;;;;;;1999.90;999.90;;;0.30;99.90;;;;;;5073893;28;20414;-66
2024/01/19 03:37:59;;;;;;;1999.90;999.90;;;0.30;99.90;;;;;;5072832;28;20849;-64
2024/01/19 03:40:25;;;;;;;1999.90;999.90;;;0.30;99.90;;;;;;5068563;28;20925;-64
2024/01/19 03:42:52;;;;;;;1999.90;999.90;;;0.30;99.90;;;;;;5069144;28;20412;-65
2024/01/19 03:45:19;;;;;;;1999.90;999.90;;;0.30;99.90;;;;;;5073580;28;20412;-66
2024/01/19 03:47:47;;;;;;;1999.90;999.90;;;0.30;99.90;;;;;;5069900;28;20419;-66
2024/01/19 03:50:15;;;;;;;1999.90;999.90;;;0.30;99.90;;;;;;5066522;28;20430;-66
2024/01/19 03:52:41;;;;;;;1999.90;999.90;;;0.40;99.90;;;;;;5081661;28;20433;-65
2024/01/19 03:55:08;;;;;;;1999.90;999.90;;;0.40;99.90;;;;;;5069329;28;20873;-66
2024/01/19 03:57:35;;;;;;;1999.90;999.90;;;0.40;99.90;;;;;;5070077;28;20416;-67
2024/01/19 04:00:05;;;;;;;1999.90;999.90;;;0.40;99.90;;;;;;5071119;28;20423;-66
2024/01/19 04:02:31;;;;;;;1999.90;999.90;;;0.40;99.90;;;;;;5068483;28;20431;-65
2024/01/19 04:04:58;;;;;;;1999.90;999.90;;;0.30;99.90;;;;;;5074587;28;20430;-66
2024/01/19 04:07:26;;;;;;;1999.90;999.90;;;0.30;99.90;;;;;;5070115;28;20418;-66
2024/01/19 04:09:54;;;;;;;1999.90;999.90;;;0.30;99.90;;;;;;5071662;28;20427;-65
2024/01/19 04:12:20;;;;;;;1999.90;999.90;;;0.40;99.90;;;;;;5078066;28;20788;-63
2024/01/19 04:14:48;;;;;;;1999.90;999.90;;;0.40;99.90;;;;;;5074011;28;20429;-66
2024/01/19 04:17:14;;;;;;;1999.90;999.90;;;0.40;99.90;;;;;;5078168;28;20447;-65
2024/01/19 04:19:41;;;;;;;1999.90;999.90;;;0.40;99.90;;;;;;5088683;28;20421;-67
2024/01/19 04:22:08;;;;;;;1999.90;999.90;;;0.40;99.90;;;;;;5074387;28;20423;-66
2024/01/19 04:24:36;;;;;;;1999.90;999.90;;;0.40;99.90;;;;;;5074988;28;20406;-67
2024/01/19 04:27:03;;;;;;;1999.90;999.90;;;0.40;99.90;;;;;;5068628;28;20442;-67
2024/01/19 04:29:29;;;;;;;1999.90;999.90;;;0.40;99.90;;;;;;5069840;28;20407;-65
2024/01/19 04:31:56;;;;;;;1999.90;999.90;;;0.40;99.90;;;;;;5070032;28;20407;-65
2024/01/19 04:34:23;;;;;;;1999.90;999.90;;;0.40;99.90;;;;;;5072592;28;20410;-67
2024/01/19 04:36:49;;;;;;;1999.90;999.90;;;0.40;99.90;;;;;;5076539;28;20407;-66
2024/01/19 04:39:17;;;;;;;1999.90;999.90;;;0.40;99.90;;;;;;5070291;28;20799;-63
2024/01/19 04:41:45;;;;;;;1999.90;999.90;;;0.40;99.90;;;;;;5079482;28;20485;-66
2024/01/19 04:44:12;;;;;;;1999.90;999.90;;;0.30;99.90;;;;;;5069772;28;20443;-66
2024/01/19 04:46:38;;;;;;;1999.90;999.90;;;0.30;99.90;;;;;;5069964;28;20422;-65
2024/01/19 04:49:05;;;;;;;1999.90;999.90;;;0.30;99.90;;;;;;5075104;28;20419;-65
2024/01/19 04:51:32;;;;;;;1999.90;999.90;;;0.20;99.90;;;;;;5078760;28;20889;-67
2024/01/19 04:53:59;;;;;;;1999.90;999.90;;;0.30;99.90;;;;;;5075129;28;20434;-68
2024/01/19 04:56:26;;;;;;;1999.90;999.90;;;0.30;99.90;;;;;;5077232;28;20415;-65
2024/01/19 04:58:54;;;;;;;1999.90;999.90;;;0.30;99.90;;;;;;5069301;28;20415;-65
2024/01/19 05:01:20;;;;;;;1999.90;999.90;;;0.30;99.90;;;;;;5070345;28;20427;-68
2024/01/19 05:03:47;;;;;;;1999.90;999.90;;;0.30;99.90;;;;;;5097484;28;20913;-67
2024/01/19 05:06:14;;;;;;;1999.90;999.90;;;0.30;99.90;;;;;;5096993;28;20408;-67
2024/01/19 05:08:40;;;;;;;1999.90;999.90;;;0.60;99.90;;;;;;5080277;28;20419;-65
2024/01/19 05:11:11;;;;;;;1999.90;999.90;;;0.20;99.90;;;;;;5070077;28;20881;-65
2024/01/19 05:13:38;;;;;;;1999.90;999.90;;;0.20;99.90;;;;;;5073484;28;20437;-67
2024/01/19 05:16:06;;;;;;;1999.90;999.90;;;0.20;99.90;;;;;;5074565;28;20408;-63
2024/01/19 05:18:33;;;;;;;1999.90;999.90;;;0.20;99.90;;;;;;5074241;28;20415;-65
2024/01/19 05:21:00;;;;;;;1999.90;999.90;;;0.20;99.90;;;;;;5073564;28;20434;-67
2024/01/19 05:23:27;;;;;;;1999.90;999.90;;;0.20;99.90;;;;;;5081813;28;20414;-64
2024/01/19 05:25:53;;;;;;;1999.90;999.90;;;0.20;99.90;;;;;;5080317;28;20438;-66
2024/01/19 05:28:20;;;;;;;1999.90;999.90;;;0.40;99.90;;;;;;5080710;28;20424;-65
2024/01/19 05:30:48;;;;;;;1999.90;999.90;;;0.40;99.90;;;;;;5073750;28;20944;-66
2024/01/19 05:33:16;;;;;;;1999.90;999.90;;;0.40;99.90;;;;;;5075364;28;20469;-66
2024/01/19 05:35:43;;;;;;;1999.90;999.90;;;0.60;99.90;;;;;;5079803;28;20437;-66
2024/01/19 05:38:09;;;;;;;1999.90;999.90;;;0.60;99.90;;;;;;5083292;28;20414;-65
2024/01/19 05:40:36;;;;;;;1999.90;999.90;;;0.50;99.90;;;;;;5080204;28;20435;-66
2024/01/19 05:43:03;;;;;;;1999.90;999.90;;;0.60;99.90;;;;;;5073776;28;20412;-67
2024/01/19 05:45:30;;;;;;;1999.90;999.90;;;0.50;99.90;;;;;;5079978;28;20413;-66
2024/01/19 05:47:56;;;;;;;1999.90;999.90;;;0.40;99.90;;;;;;5079430;28;20913;-63
2024/01/19 05:50:24;;;;;;;1999.90;999.90;;;0.40;99.90;;;;;;5073592;28;20894;-64
2024/01/19 05:52:51;;;;;;;1999.90;999.90;;;0.30;99.90;;;;;;5075909;28;20415;-67
2024/01/19 05:55:18;;;;;;;1999.90;999.90;;;0.30;99.90;;;;;;5071995;28;20419;-66
2024/01/19 05:57:44;;;;;;;1999.90;999.90;;;0.30;99.90;;;;;;5072539;28;20947;-66
2024/01/19 06:00:12;;;;;;;1999.90;999.90;;;0.30;99.90;;;;;;5071158;28;20517;-65
2024/01/19 06:02:39;;;;;;;1999.90;999.90;;;0.20;99.90;;;;;;5072908;28;20419;-65
2024/01/19 06:05:06;;;;;;;1999.90;999.90;;;0.10;99.90;;;;;;5076462;28;20412;-64
2024/01/19 06:07:34;;;;;;;1999.90;999.90;;;0.10;99.90;;;;;;5078569;28;20408;-66
2024/01/19 06:10:01;;;;;;;1999.90;999.90;;;0.10;99.90;;;;;;5071906;28;20751;-65
2024/01/19 06:12:27;;;;;;;1999.90;999.90;;;0.10;99.90;;;;;;5070938;28;20428;-65
2024/01/19 06:14:54;;;;;;;1999.90;999.90;;;0.10;99.90;;;;;;5072126;28;20431;-66
2024/01/19 06:17:21;;;;;;;1999.90;999.90;;;0.10;99.90;;;;;;5075759;28;20410;-66
2024/01/19 06:19:47;;;;;;;1999.90;999.90;;;0.20;99.90;;;;;;5084454;28;20410;-65
2024/01/19 06:22:14;;;;;;;1999.90;999.90;;;0.10;99.90;;;;;;5086534;28;20420;-65
2024/01/19 06:24:42;;;;;;;1999.90;999.90;;;0.00;99.90;;;;;;5076379;28;20429;-68
2024/01/19 06:27:09;;;;;;;1999.90;999.90;;;0.00;99.90;;;;;;5073331;28;20500;-65
2024/01/19 06:29:35;;;;;;;1999.90;999.90;;;0.00;99.90;;;;;;5071707;28;20422;-66
2024/01/19 06:32:02;;;;;;;1999.90;999.90;;;0.10;99.90;;;;;;5075071;28;20407;-66
2024/01/19 06:34:29;;;;;;;1999.90;999.90;;;0.10;99.90;;;;;;5071646;28;20411;-65
2024/01/19 06:36:55;;;;;;;1999.90;999.90;;;0.00;99.90;;;;;;5072363;28;20512;-67
2024/01/19 06:39:23;;;;;;;1999.90;999.90;;;0.00;99.90;;;;;;5074968;28;20455;-65
2024/01/19 06:41:51;;;;;;;1999.90;999.90;;;0.00;99.90;;;;;;5077610;28;20423;-64
2024/01/19 06:44:17;;;;;;;1999.90;999.90;;;0.00;99.90;;;;;;5088815;28;21618;-63
2024/01/19 06:46:45;;;;;;;1999.90;999.90;;;0.10;99.90;;;;;;5076124;28;20909;-65
2024/01/19 06:49:11;;;;;;;1999.90;999.90;;;0.10;99.90;;;;;;5070715;28;20463;-66
2024/01/19 06:51:38;;;;;;;1999.90;999.90;;;0.20;99.90;;;;;;5070374;28;20504;-66
2024/01/19 06:54:05;;;;;;;1999.90;999.90;;;0.30;99.90;;;;;;5073853;28;20438;-62
2024/01/19 06:56:32;;;;;;;1999.90;999.90;;;0.30;99.90;;;;;;5083622;28;20416;-65
2024/01/19 06:59:01;;;;;;;1999.90;999.90;;;0.40;99.90;;;;;;5074399;28;20798;-65
2024/01/19 07:01:27;;;;;;;1999.90;999.90;;;0.40;99.90;;;;;;5072822;28;20473;-65
2024/01/19 07:03:54;;;;;;;1999.90;999.90;;;0.40;99.90;;;;;;5071161;28;20430;-65
2024/01/19 07:06:20;;;;;;;1999.90;999.90;;;0.40;99.90;;;;;;5074737;28;20788;-67
2024/01/19 07:08:47;;;;;;;1999.90;999.90;;;0.40;99.90;;;;;;5085353;28;20837;-66
2024/01/19 07:11:14;;;;;;;1999.90;999.90;;;0.40;99.90;;;;;;5095050;28;20412;-65
2024/01/19 07:13:42;;;;;;;1999.90;999.90;;;0.30;99.90;;;;;;5095589;28;20431;-66
2024/01/19 07:16:11;;;;;;;1999.90;999.90;;;0.30;99.90;;;;;;5090037;28;20411;-65
2024/01/19 07:18:37;;;;;;;1999.90;999.90;;;0.30;99.90;;;;;;5070153;28;20428;-67
2024/01/19 07:21:04;;;;;;;1999.90;999.90;;;0.30;99.90;;;;;;5074495;28;20427;-62
2024/01/19 07:23:31;;;;;;;1999.90;999.90;;;0.40;99.90;;;;;;5068699;28;20416;-66
2024/01/19 07:25:58;;;;;;;1999.90;999.90;;;0.50;99.90;;;;;;5073490;28;21053;-65
2024/01/19 07:28:24;;;;;;;1999.90;999.90;;;0.50;99.90;;;;;;5070552;28;20429;-65
2024/01/19 07:30:51;;;;;;;1999.90;999.90;;;0.50;99.90;;;;;;5071893;28;20407;-63
2024/01/19 07:33:19;;;;;;;1999.90;999.90;;;0.50;99.90;;;;;;5082586;28;20449;-64
2024/01/19 07:35:46;;;;;;;1999.90;999.90;;;0.50;99.90;;;;;;5103263;28;20414;-66
2024/01/19 07:38:13;;;;;;;1999.90;999.90;;;0.50;99.90;;;;;;5081602;28;20427;-67
2024/01/19 07:40:39;;;;;;;1999.90;999.90;;;0.50;99.90;;;;;;5071987;28;20457;-66
2024/01/19 07:43:06;;;;;;;1999.90;999.90;;;0.60;99.90;;;;;;5079364;28;20417;-64
2024/01/19 07:45:33;;;;;;;1999.90;999.90;;;0.10;99.90;;;;;;5091346;28;20420;-65
2024/01/19 07:47:59;;;;;;;1999.90;999.90;;;0.50;99.90;;;;;;5089660;28;20406;-65
2024/01/19 07:50:28;;;;;;;1999.90;999.90;;;0.60;99.90;;;;;;5080497;28;20792;-63
2024/01/19 07:52:54;;;;;;;1999.90;999.90;;;0.50;99.90;;;;;;5067233;28;20446;-64
2024/01/19 07:55:21;;;;;;;1999.90;999.90;;;0.60;99.90;;;;;;5073542;28;20421;-65
2024/01/19 07:57:48;;;;;;;1999.90;999.90;;;0.60;99.90;;;;;;5069899;28;21179;-66
2024/01/19 08:00:15;;;;;;;1999.90;999.90;;;0.60;99.90;;;;;;5072390;28;21118;-65
2024/01/19 08:02:43;;;;;;;1999.90;999.90;;;0.70;99.90;;;;;;5089905;28;20917;-67
2024/01/19 08:05:09;;;;;;;1999.90;999.90;;;0.70;99.90;;;;;;5087411;28;20988;-67
2024/01/19 08:07:40;;;;;;;1999.90;999.90;;;0.70;99.90;;;;;;5065235;28;20435;-64
2024/01/19 08:10:07;;;;;;;1999.90;999.90;;;0.80;99.90;;;;;;5079081;28;20441;-64
2024/01/19 08:12:34;;;;;;;1999.90;999.90;;;0.80;99.90;;;;;;5076104;28;20781;-66
2024/01/19 08:15:01;;;;;;;1999.90;999.90;;;0.80;99.90;;;;;;5090154;28;20476;-65
2024/01/19 08:17:28;;;;;;;1999.90;999.90;;;0.90;99.90;;;;;;5085066;28;20433;-66
2024/01/19 08:19:54;;;;;;;1999.90;999.90;;;0.90;99.90;;;;;;5070112;28;20916;-65
2024/01/19 08:22:21;;;;;;;1999.90;999.90;;;0.90;99.90;;;;;;5081447;28;20853;-64
2024/01/19 08:24:49;;;;;;;1999.90;999.90;;;1.00;99.90;;;;;;5083465;28;20793;-66
2024/01/19 08:27:16;;;;;;;1999.90;999.90;;;1.10;99.90;;;;;;5089470;28;20432;-64
2024/01/19 08:29:45;;;;;;;1999.90;999.90;;;1.10;99.90;;;;;;5082010;28;20443;-65
2024/01/19 08:32:12;;;;;;;1999.90;999.90;;;1.10;99.90;;;;;;5071256;28;20423;-64
2024/01/19 08:34:39;;;;;;;1999.90;999.90;;;1.10;99.90;;;;;;5065000;28;20469;-63
2024/01/19 08:37:06;;;;;;;1999.90;999.90;;;1.10;99.90;;;;;;5072604;28;20905;-65
2024/01/19 08:39:33;;;;;;;1999.90;999.90;;;1.10;99.90;;;;;;5079475;28;20412;-65
2024/01/19 08:42:01;;;;;;;1999.90;999.90;;;1.20;99.90;;;;;;5068269;28;20447;-64
2024/01/19 08:44:27;;;;;;;1999.90;999.90;;;1.30;99.90;;;;;;5074930;28;20414;-63
2024/01/19 08:46:54;;;;;;;1999.90;999.90;;;1.30;99.90;;;;;;5075760;28;21167;-66
2024/01/19 08:49:21;;;;;;;1999.90;999.90;;;1.50;99.90;;;;;;5073673;28;21079;-65
2024/01/19 08:51:49;;;;;;;1999.90;999.90;;;1.50;99.90;;;;;;5083620;28;20446;-64
2024/01/19 08:54:17;;;;;;;1999.90;999.90;;;1.50;99.90;;;;;;5075617;28;20420;-65
2024/01/19 08:56:43;;;;;;;1999.90;999.90;;;2.00;99.90;;;;;;5076115;28;20443;-66
2024/01/19 08:59:12;;;;;;;1999.90;999.90;;;1.80;99.90;;;;;;5107283;28;20406;-67
2024/01/19 09:01:39;;;;;;;1999.90;999.90;;;1.80;99.90;;;;;;5097215;28;20414;-68
2024/01/19 09:04:06;;;;;;;1999.90;999.90;;;1.90;99.90;;;;;;5097818;28;20399;-65
2024/01/19 09:06:33;;;;;;;1999.90;999.90;;;2.00;99.90;;;;;;5092845;28;20414;-66
2024/01/19 09:09:03;;;;;;;1999.90;999.90;;;2.00;99.90;;;;;;5075745;28;20418;-64
2024/01/19 09:11:33;;;;;;;1999.90;999.90;;;2.00;99.90;;;;;;5077163;28;20421;-62
2024/01/19 09:14:02;;;;;;;1999.90;999.90;;;2.10;99.90;;;;;;5082499;28;20820;-65
2024/01/19 09:16:30;;;;;;;1999.90;999.90;;;2.00;99.90;;;;;;5076290;28;20500;-66
2024/01/19 09:18:56;;;;;;;1999.90;999.90;;;2.00;99.90;;;;;;5073271;28;20411;-66
2024/01/19 09:21:23;;;;;;;1999.90;999.90;;;2.10;99.90;;;;;;5077461;28;20433;-64
2024/01/19 09:23:50;;;;;;;1999.90;999.90;;;2.20;99.90;;;;;;5074766;28;20419;-66
2024/01/19 09:26:19;;;;;;;1999.90;999.90;;;2.20;99.90;;;;;;5087072;28;20832;-65
2024/01/19 09:28:46;;;;;;;1999.90;999.90;;;2.20;99.90;;;;;;5074830;28;20970;-67
2024/01/19 09:31:14;;;;;;;1999.90;999.90;;;2.20;99.90;;;;;;5073781;28;20416;-62
2024/01/19 09:33:44;;;;;;;1999.90;999.90;;;2.20;99.90;;;;;;5074611;28;20920;-63
2024/01/19 09:36:11;;;;;;;1999.90;999.90;;;2.30;99.90;;;;;;5074912;28;20416;-66
2024/01/19 09:38:38;;;;;;;1999.90;999.90;;;2.20;99.90;;;;;;5084770;28;20427;-64
2024/01/19 09:41:16;;;;;;;1999.90;999.90;;;2.30;99.90;;;;;;5077891;28;20431;-64
2024/01/19 09:43:46;;;;;;;1999.90;999.90;;;2.20;99.90;;;;;;5072425;28;20412;-67
2024/01/19 09:46:19;;;;;;;1999.90;999.90;;;2.30;99.90;;;;;;5072814;28;20422;-64
2024/01/19 09:48:59;;;;;;;1999.90;999.90;;;2.30;99.90;;;;;;5072195;28;20450;-67
2024/01/19 09:51:37;;;;;;;1999.90;999.90;;;2.40;99.90;;;;;;5078301;28;20431;-70
2024/01/19 09:54:08;;;;;;;1999.90;999.90;;;2.50;99.90;;;;;;5107549;28;20409;-66
2024/01/19 09:56:36;;;;;;;1999.90;999.90;;;2.60;99.90;;;;;;5093068;28;20412;-67
2024/01/19 09:59:06;;;;;;;1999.90;999.90;;;2.70;99.90;;;;;;5089670;28;20437;-67
2024/01/19 10:01:34;;;;;;;1999.90;999.90;;;2.70;99.90;;;;;;5092937;28;20424;-65
2024/01/19 10:04:06;;;;;;;1999.90;999.90;;;2.70;99.90;;;;;;5072572;28;20437;-66
2024/01/19 10:06:33;;;;;;;1999.90;999.90;;;2.80;99.90;;;;;;5076866;28;20467;-65
2024/01/19 10:09:00;;;;;;;1999.90;999.90;;;2.80;99.90;;;;;;5073348;28;20428;-66
2024/01/19 10:11:30;;;;;;;1999.90;999.90;;;2.90;99.90;;;;;;5076275;28;20436;-66
2024/01/19 10:13:56;;;;;;;1999.90;999.90;;;2.90;99.90;;;;;;5076939;28;20467;-64
2024/01/19 10:16:23;;;;;;;1999.90;999.90;;;2.90;99.90;;;;;;5084114;28;20441;-66
2024/01/19 10:18:50;;;;;;;1999.90;999.90;;;2.90;99.90;;;;;;5066425;28;21034;-66
2024/01/19 10:21:28;;;;;;;1999.90;999.90;;;2.80;99.90;;;;;;5068201;28;20428;-66
2024/01/19 10:24:08;;;;;;;1999.90;999.90;;;2.80;99.90;;;;;;5070784;28;20442;-65
2024/01/19 10:26:36;;;;;;;1999.90;999.90;;;2.70;99.90;;;;;;5076174;28;20412;-66
2024/01/19 10:29:09;;;;;;;1999.90;999.90;;;2.70;99.90;;;;;;5078085;28;20459;-66
2024/01/19 10:31:37;;;;;;;1999.90;999.90;;;2.70;99.90;;;;;;5068469;28;20852;-66
2024/01/19 10:34:04;;;;;;;1999.90;999.90;;;2.70;99.90;;;;;;5073942;28;20419;-65
2024/01/19 10:36:39;;;;;;;1999.90;999.90;;;2.80;99.90;;;;;;5075963;28;20417;-65
2024/01/19 10:39:17;;;;;;;1999.90;999.90;;;2.70;99.90;;;;;;5073977;28;20841;-66
2024/01/19 10:41:44;;;;;;;1999.90;999.90;;;2.60;99.90;;;;;;5077574;28;20803;-66
2024/01/19 10:44:11;;;;;;;1999.90;999.90;;;2.40;99.90;;;;;;5090922;28;20839;-68
2024/01/19 10:46:38;;;;;;;1999.90;999.90;;;2.50;99.90;;;;;;5091791;28;20467;-61
2024/01/19 10:49:07;;;;;;;1999.90;999.90;;;2.50;99.90;;;;;;5086041;28;20427;-65
2024/01/19 10:51:35;;;;;;;1999.90;999.90;;;2.60;99.90;;;;;;5075889;28;20803;-65
2024/01/19 10:54:04;;;;;;;1999.90;999.90;;;2.60;99.90;;;;;;5069475;28;20421;-67
2024/01/19 10:56:31;;;;;;;1999.90;999.90;;;2.60;99.90;;;;;;5070911;28;20407;-66
2024/01/19 10:59:10;;;;;;;1999.90;999.90;;;2.60;99.90;;;;;;5079710;28;20406;-66
2024/01/19 11:01:37;;;;;;;1999.90;999.90;;;2.70;99.90;;;;;;5086295;28;20422;-66
2024/01/19 11:04:06;;;;;;;1999.90;999.90;;;2.70;99.90;;;;;;5070143;28;20418;-68
2024/01/19 11:06:34;;;;;;;1999.90;999.90;;;2.70;99.90;;;;;;5083752;28;20417;-67
2024/01/19 11:09:01;;;;;;;1999.90;999.90;;;2.80;99.90;;;;;;5091039;28;20413;-65
2024/01/19 11:11:32;;;;;;;1999.90;999.90;;;2.70;99.90;;;;;;5091446;28;20402;-68
2024/01/19 11:14:02;;;;;;;1999.90;999.90;;;2.80;99.90;;;;;;5082195;28;20459;-63
2024/01/19 11:16:31;;;;;;;1999.90;999.90;;;2.70;99.90;;;;;;5069993;28;20424;-66
2024/01/19 11:18:58;;;;;;;1999.90;999.90;;;2.70;99.90;;;;;;5087319;28;20413;-69
2024/01/19 11:21:26;;;;;;;1999.90;999.90;;;2.90;99.90;;;;;;5090627;28;20410;-66
2024/01/19 11:23:53;;;;;;;1999.90;999.90;;;2.90;99.90;;;;;;5090384;28;20410;-67
2024/01/19 11:26:26;;;;;;;1999.90;999.90;;;2.90;99.90;;;;;;5078514;28;20961;-65
2024/01/19 11:29:00;;;;;;;1999.90;999.90;;;3.00;99.90;;;;;;5070527;28;21137;-66
2024/01/19 11:31:30;;;;;;;1999.90;999.90;;;3.00;99.90;;;;;;5074568;28;21021;-66
2024/01/19 11:33:57;;;;;;;1999.90;999.90;;;2.90;99.90;;;;;;5090331;28;20413;-68
2024/01/19 11:36:48;;;;;;;1999.90;999.90;;;2.90;99.90;;;;;;5090269;28;20795;-62
2024/01/19 11:39:40;;;;;;;1999.90;999.90;;;3.10;99.90;;;;;;5073030;28;20408;-69
2024/01/19 11:42:08;;;;;;;1999.90;999.90;;;3.10;99.90;;;;;;5085415;28;20426;-65
2024/01/19 11:44:45;;;;;;;1999.90;999.90;;;3.10;99.90;;;;;;5090975;28;20413;-66
2024/01/19 11:47:40;;;;;;;1999.90;999.90;;;3.10;99.90;;;;;;5091082;28;20957;-66
2024/01/19 11:50:09;;;;;;;1999.90;999.90;;;3.10;99.90;;;;;;5083111;28;21299;-66
2024/01/19 11:52:41;;;;;;;1999.90;999.90;;;3.10;99.90;;;;;;5070273;28;20420;-66
2024/01/19 11:55:36;;;;;;;1999.90;999.90;;;3.00;99.90;;;;;;5088435;28;20982;-66
2024/01/19 11:58:35;;;;;;;1999.90;999.90;;;2.90;99.90;;;;;;5090235;28;20437;-65
2024/01/19 12:01:04;;;;;;;1999.90;999.90;;;3.00;99.90;;;;;;5023966;28;20487;-66
2024/01/19 12:03:31;;;;;;;1999.90;999.90;;;2.80;99.90;;;;;;5069372;28;20492;-69
2024/01/19 12:06:00;;;;;;;1999.90;999.90;;;2.80;99.90;;;;;;5086843;28;20406;-66
2024/01/19 12:08:27;;;;;;;1999.90;999.90;;;2.80;99.90;;;;;;5090918;28;20406;-66
2024/01/19 12:11:08;;;;;;;1999.90;999.90;;;2.90;99.90;;;;;;5090186;28;20855;-66